U S A F Academy, Colorado
Current Conditions -  °F | °C
As of 11:26 PM on Tuesday 25 Nov 2014 (Local Time) from KSHM Reporting Station
Broken Clouds Broken Clouds  
Wind Chill: 17°   Ceiling: 900
Heat Index: 30°   Visibility: 10mi
Dew Point: 27°   Wind: 21mph
Humidity: 86%   Direction: 20°NNE
Pressure: 30.07"   Gusts: 35mph
Location:  38.8247°N, 104.562°W
Report Text: KSHM 260626Z AUTO 02018G30KT 10SM BKN009 M01/M03 A3007 RMK AO2
Loading
Personal Weather Stations






























Interactive Weather Map New forecast layout! Learn more

10-Day Weather Forecast

Advertisements
Track Severe Weather on mobile